createdAt,value
2023-03-02T00:01:49.472Z,38.77
2023-03-02T00:04:15.944Z,39.01
2023-03-02T00:06:42.577Z,39.27
2023-03-02T00:09:09.032Z,39.22
2023-03-02T00:11:35.421Z,38.77
2023-03-02T00:14:01.838Z,38.92
2023-03-02T00:16:28.272Z,38.97
2023-03-02T00:18:54.728Z,38.94
2023-03-02T00:21:21.152Z,38.84
2023-03-02T00:23:47.539Z,39.04
2023-03-02T00:26:14.513Z,39.15
2023-03-02T00:28:40.954Z,39.23
2023-03-02T00:31:07.458Z,39.20
2023-03-02T00:33:33.934Z,39.43
2023-03-02T00:36:00.424Z,39.11
2023-03-02T00:38:26.941Z,38.93
2023-03-02T00:40:53.308Z,39.44
2023-03-02T00:43:19.689Z,39.09
2023-03-02T00:45:46.066Z,39.45
2023-03-02T00:48:12.544Z,39.72
2023-03-02T00:50:40.514Z,39.87
2023-03-02T00:53:06.895Z,39.98
2023-03-02T00:55:33.348Z,40.20
2023-03-02T00:57:59.874Z,39.93
2023-03-02T01:00:26.772Z,39.75
2023-03-02T01:02:53.399Z,39.98
2023-03-02T01:05:19.969Z,39.24
2023-03-02T01:07:46.549Z,39.35
2023-03-02T01:10:12.961Z,39.05
2023-03-02T01:12:39.352Z,39.44
2023-03-02T01:15:05.788Z,39.08
2023-03-02T01:17:32.172Z,38.88
2023-03-02T01:19:58.577Z,38.63
2023-03-02T01:22:25.036Z,39.25
2023-03-02T01:24:51.518Z,39.05
2023-03-02T01:27:17.894Z,38.65
2023-03-02T01:29:44.344Z,39.17
2023-03-02T01:32:10.837Z,39.19
2023-03-02T01:34:37.361Z,39.01
2023-03-02T01:37:03.761Z,39.39
2023-03-02T01:39:32.347Z,39.38
2023-03-02T01:41:58.778Z,38.87
2023-03-02T01:44:25.197Z,38.92
2023-03-02T01:46:51.895Z,38.77
2023-03-02T01:49:18.328Z,38.87
2023-03-02T01:51:44.753Z,37.99
2023-03-02T01:54:11.280Z,38.95
2023-03-02T01:56:37.711Z,38.05
2023-03-02T01:59:04.133Z,38.35
2023-03-02T02:01:30.693Z,38.01
2023-03-02T02:03:57.323Z,38.60
2023-03-02T02:06:23.845Z,38.74
2023-03-02T02:08:50.267Z,39.01
2023-03-02T02:11:17.256Z,38.80
2023-03-02T02:13:43.694Z,39.20
2023-03-02T02:16:10.202Z,38.81
2023-03-02T02:18:36.668Z,38.78
2023-03-02T02:21:03.108Z,38.99
2023-03-02T02:23:29.539Z,38.85
2023-03-02T02:25:56.406Z,38.58
2023-03-02T02:28:22.878Z,39.18
2023-03-02T02:30:49.341Z,38.97
2023-03-02T02:33:15.768Z,39.08
2023-03-02T02:35:42.639Z,39.28
2023-03-02T02:38:11.936Z,39.18
2023-03-02T02:40:38.320Z,39.69
2023-03-02T02:43:04.752Z,39.90
2023-03-02T02:45:31.181Z,39.38
2023-03-02T02:47:57.641Z,40.13
2023-03-02T02:50:25.468Z,39.70
2023-03-02T02:52:52.110Z,39.93
2023-03-02T02:55:18.555Z,39.78
2023-03-02T02:57:44.992Z,40.13
2023-03-02T03:00:11.494Z,40.00
2023-03-02T03:02:37.915Z,40.37
2023-03-02T03:05:04.439Z,40.61
2023-03-02T03:07:30.905Z,40.36
2023-03-02T03:09:57.939Z,40.61
2023-03-02T03:12:24.580Z,40.55
2023-03-02T03:14:53.244Z,40.53
2023-03-02T03:17:19.681Z,40.47
2023-03-02T03:19:46.122Z,40.12
2023-03-02T03:22:12.493Z,40.70
2023-03-02T03:24:39.355Z,40.60
2023-03-02T03:27:06.045Z,40.89
2023-03-02T03:29:32.604Z,40.36
2023-03-02T03:31:59.084Z,40.56
2023-03-02T03:34:25.550Z,41.10
2023-03-02T03:36:51.950Z,41.08
2023-03-02T03:39:18.381Z,41.12
2023-03-02T03:41:44.800Z,41.56
2023-03-02T03:44:11.254Z,41.64
2023-03-02T03:46:37.721Z,41.04
2023-03-02T03:49:04.118Z,41.16
2023-03-02T03:51:30.555Z,41.29
2023-03-02T03:53:57.098Z,41.40
2023-03-02T03:56:23.483Z,41.73
2023-03-02T03:58:49.936Z,41.85
2023-03-02T04:01:16.424Z,41.37
2023-03-02T04:03:42.981Z,41.39
2023-03-02T04:06:09.416Z,41.87
2023-03-02T04:08:35.857Z,41.78
2023-03-02T04:11:02.295Z,41.64
2023-03-02T04:13:28.699Z,41.31
2023-03-02T04:15:55.225Z,41.39
2023-03-02T04:18:21.695Z,41.45
2023-03-02T04:20:48.136Z,41.54
2023-03-02T04:23:14.563Z,41.75
2023-03-02T04:25:41.022Z,41.71
2023-03-02T04:28:07.515Z,42.76
2023-03-02T04:30:33.994Z,43.00
2023-03-02T04:33:00.672Z,42.72
2023-03-02T04:35:27.526Z,42.67
2023-03-02T04:37:59.522Z,42.73
2023-03-02T04:40:26.010Z,42.63
2023-03-02T04:42:52.437Z,42.64
2023-03-02T04:45:18.958Z,42.29
2023-03-02T04:47:45.492Z,42.24
2023-03-02T04:50:11.924Z,42.15
2023-03-02T04:52:38.442Z,42.54
2023-03-02T04:55:04.902Z,42.68
2023-03-02T04:57:31.338Z,42.41
2023-03-02T04:59:57.760Z,42.28
2023-03-02T05:02:24.157Z,42.99
2023-03-02T05:04:50.688Z,42.86
2023-03-02T05:07:17.145Z,42.74
2023-03-02T05:09:43.635Z,42.73
2023-03-02T05:12:10.515Z,42.73
2023-03-02T05:14:37.351Z,42.26
2023-03-02T05:17:05.948Z,42.43
2023-03-02T05:19:32.347Z,42.18
2023-03-02T05:21:58.824Z,42.53
2023-03-02T05:24:25.258Z,42.33
2023-03-02T05:26:52.030Z,42.59
2023-03-02T05:29:18.434Z,42.46
2023-03-02T05:31:44.973Z,42.54
2023-03-02T05:34:11.917Z,42.62
2023-03-02T05:36:38.616Z,42.62
2023-03-02T05:39:05.173Z,43.12
2023-03-02T05:41:31.706Z,43.02
2023-03-02T05:43:58.168Z,42.96
2023-03-02T05:46:24.768Z,43.08
2023-03-02T05:48:51.292Z,42.94
2023-03-02T05:51:17.710Z,43.39
2023-03-02T05:53:44.233Z,43.11
2023-03-02T05:56:10.776Z,42.89
2023-03-02T05:58:37.279Z,42.75
2023-03-02T06:01:08.529Z,43.00
2023-03-02T06:03:35.027Z,42.93
2023-03-02T06:06:01.582Z,42.90
2023-03-02T06:08:28.052Z,42.81
2023-03-02T06:10:54.457Z,42.73
2023-03-02T06:13:21.861Z,42.52
2023-03-02T06:15:48.310Z,42.62
2023-03-02T06:18:14.722Z,42.41
2023-03-02T06:20:41.291Z,42.46
2023-03-02T06:23:07.733Z,42.53
2023-03-02T06:25:34.174Z,42.46
2023-03-02T06:28:00.640Z,42.37
2023-03-02T06:30:27.233Z,42.44
2023-03-02T06:32:53.715Z,42.70
2023-03-02T06:35:20.257Z,42.62
2023-03-02T06:37:46.690Z,42.70
2023-03-02T06:40:13.121Z,42.47
2023-03-02T06:42:39.519Z,42.46
2023-03-02T06:45:05.916Z,42.34
2023-03-02T06:47:32.369Z,42.24
2023-03-02T06:49:58.852Z,42.71
2023-03-02T06:52:25.617Z,42.97
2023-03-02T06:54:52.142Z,42.38
2023-03-02T06:57:18.856Z,42.46
2023-03-02T06:59:45.324Z,42.17
2023-03-02T07:02:11.810Z,42.01
2023-03-02T07:04:38.230Z,41.74
2023-03-02T07:07:04.652Z,41.58
2023-03-02T07:09:31.364Z,41.71
2023-03-02T07:11:57.853Z,41.41
2023-03-02T07:14:24.246Z,41.14
2023-03-02T07:16:50.734Z,40.62
2023-03-02T07:19:17.218Z,40.51
2023-03-02T07:21:43.613Z,40.50
2023-03-02T07:24:10.104Z,40.77
2023-03-02T07:26:36.611Z,40.64
2023-03-02T07:29:03.074Z,38.67
2023-03-02T07:31:29.524Z,38.19
2023-03-02T07:33:56.001Z,38.18
2023-03-02T07:36:22.468Z,37.91
2023-03-02T07:38:48.935Z,37.61
2023-03-02T07:41:15.532Z,38.42
2023-03-02T07:43:41.925Z,38.23
2023-03-02T07:46:08.431Z,38.24
2023-03-02T07:48:34.949Z,37.90
2023-03-02T07:51:01.325Z,37.18
2023-03-02T07:53:27.732Z,37.64
2023-03-02T07:55:54.226Z,37.53
2023-03-02T07:58:20.622Z,38.29
2023-03-02T08:00:47.039Z,37.32
2023-03-02T08:03:13.575Z,37.26
2023-03-02T08:05:40.097Z,37.12
2023-03-02T08:08:09.375Z,37.30
2023-03-02T08:10:35.836Z,37.65
2023-03-02T08:13:02.303Z,37.27
2023-03-02T08:15:28.831Z,37.79
2023-03-02T08:17:55.254Z,37.35
2023-03-02T08:20:21.665Z,36.74
2023-03-02T08:22:48.146Z,36.59
2023-03-02T08:25:14.597Z,36.77
2023-03-02T08:27:41.009Z,40.20
2023-03-02T08:30:07.448Z,48.08
2023-03-02T08:32:33.829Z,49.03
2023-03-02T08:35:00.800Z,41.43
2023-03-02T08:37:27.188Z,39.29
2023-03-02T08:39:53.659Z,35.22
2023-03-02T08:42:20.078Z,38.96
2023-03-02T08:44:46.534Z,35.64
2023-03-02T08:47:12.949Z,36.49
2023-03-02T08:49:39.353Z,35.51
2023-03-02T08:52:05.805Z,35.51
2023-03-02T08:54:32.166Z,35.11
2023-03-02T08:56:58.642Z,35.61
2023-03-02T08:59:25.065Z,35.03
2023-03-02T09:01:51.522Z,34.25
2023-03-02T09:04:18.007Z,35.23
2023-03-02T09:06:44.508Z,35.28
2023-03-02T09:09:10.955Z,35.12
2023-03-02T09:11:37.415Z,35.87
2023-03-02T09:14:03.876Z,35.49
2023-03-02T09:16:30.399Z,35.69
2023-03-02T09:18:56.814Z,35.52
2023-03-02T09:21:23.222Z,34.52
2023-03-02T09:23:49.633Z,35.04
2023-03-02T09:26:16.042Z,35.91
2023-03-02T09:28:42.588Z,34.82
2023-03-02T09:31:09.049Z,34.20
2023-03-02T09:33:35.547Z,34.69
2023-03-02T09:36:02.080Z,34.79
2023-03-02T09:38:28.553Z,35.25
2023-03-02T09:40:55.172Z,34.86
2023-03-02T09:43:21.598Z,35.68
2023-03-02T09:45:48.068Z,35.06
2023-03-02T09:48:14.492Z,35.44
2023-03-02T09:50:40.938Z,35.60
2023-03-02T09:53:07.332Z,36.18
2023-03-02T09:55:33.807Z,35.50
2023-03-02T09:58:00.271Z,35.50
2023-03-02T10:00:26.657Z,34.65
2023-03-02T10:02:54.024Z,34.52
2023-03-02T10:05:20.515Z,35.20
2023-03-02T10:07:46.926Z,34.75
2023-03-02T10:10:13.337Z,35.18
2023-03-02T10:12:39.805Z,35.00
2023-03-02T10:15:06.210Z,34.76
2023-03-02T10:17:32.653Z,35.31
2023-03-02T10:19:59.069Z,35.20
2023-03-02T10:22:25.480Z,35.99
2023-03-02T10:24:53.538Z,36.38
2023-03-02T10:27:19.970Z,36.08
2023-03-02T10:29:46.429Z,36.33
2023-03-02T10:32:12.938Z,36.09
2023-03-02T10:34:39.440Z,36.14
2023-03-02T10:37:05.850Z,35.63
2023-03-02T10:39:32.321Z,35.75
2023-03-02T10:41:58.783Z,36.28
2023-03-02T10:44:25.224Z,35.76
2023-03-02T10:46:51.693Z,35.40
2023-03-02T10:49:21.065Z,35.63
2023-03-02T10:51:47.743Z,35.71
2023-03-02T10:54:14.209Z,35.99
2023-03-02T10:56:40.639Z,36.51
2023-03-02T10:59:07.078Z,36.95
2023-03-02T11:01:33.502Z,36.38
2023-03-02T11:03:59.981Z,36.96
2023-03-02T11:06:26.395Z,36.62
2023-03-02T11:08:52.854Z,35.72
2023-03-02T11:11:19.411Z,36.39
2023-03-02T11:13:45.875Z,36.25
2023-03-02T11:16:12.394Z,36.34
2023-03-02T11:18:38.795Z,36.49
2023-03-02T11:21:05.200Z,36.54
2023-03-02T11:23:31.627Z,36.36
2023-03-02T11:25:58.046Z,36.75
2023-03-02T11:28:24.446Z,36.23
2023-03-02T11:30:50.876Z,36.29
2023-03-02T11:33:17.293Z,36.40
2023-03-02T11:35:43.832Z,36.80
2023-03-02T11:38:10.311Z,36.29
2023-03-02T11:40:36.740Z,36.61
2023-03-02T11:43:03.178Z,36.53
2023-03-02T11:45:29.636Z,36.65
2023-03-02T11:48:02.561Z,36.81
2023-03-02T11:50:29.922Z,36.11
2023-03-02T11:52:56.416Z,36.43
2023-03-02T11:55:22.824Z,36.55
2023-03-02T11:57:49.238Z,44.24
2023-03-02T12:00:15.770Z,43.49
2023-03-02T12:02:42.237Z,37.85
2023-03-02T12:05:09.358Z,36.10
2023-03-02T12:07:35.765Z,36.45
2023-03-02T12:10:02.643Z,36.59
2023-03-02T12:12:29.140Z,36.34
2023-03-02T12:14:55.506Z,35.19
2023-03-02T12:17:21.976Z,34.84
2023-03-02T12:19:48.420Z,34.96
2023-03-02T12:22:14.938Z,35.02
2023-03-02T12:24:41.392Z,35.27
2023-03-02T12:27:07.823Z,35.62
2023-03-02T12:29:34.262Z,35.61
2023-03-02T12:32:00.771Z,35.49
2023-03-02T12:34:27.208Z,33.62
2023-03-02T12:36:53.686Z,33.00
2023-03-02T12:39:20.198Z,32.60
2023-03-02T12:41:46.760Z,33.39
2023-03-02T12:44:13.337Z,33.38
2023-03-02T12:46:39.855Z,33.21
2023-03-02T12:49:07.104Z,33.36
2023-03-02T12:51:34.394Z,33.05
2023-03-02T12:54:00.938Z,35.15
2023-03-02T12:56:27.432Z,36.09
2023-03-02T12:58:53.862Z,32.35
2023-03-02T13:01:26.809Z,32.45
2023-03-02T13:03:53.359Z,31.68
2023-03-02T13:06:20.662Z,32.41
2023-03-02T13:08:47.131Z,32.16
2023-03-02T13:11:13.633Z,31.47
2023-03-02T13:13:40.356Z,31.87
2023-03-02T13:16:06.790Z,31.68
2023-03-02T13:18:33.394Z,30.85
2023-03-02T13:21:00.072Z,30.98
2023-03-02T13:23:26.659Z,31.08
2023-03-02T13:25:53.141Z,30.32
2023-03-02T13:28:19.574Z,29.83
2023-03-02T13:30:46.054Z,30.59
2023-03-02T13:33:12.535Z,30.75
2023-03-02T13:35:39.047Z,30.47
2023-03-02T13:38:05.689Z,29.73
2023-03-02T13:40:32.181Z,30.21
2023-03-02T13:42:58.619Z,29.66
2023-03-02T13:45:25.122Z,29.13
2023-03-02T13:47:51.732Z,29.47
2023-03-02T13:50:18.185Z,29.51
2023-03-02T13:52:44.657Z,29.00
2023-03-02T13:55:11.294Z,28.16
2023-03-02T13:57:37.705Z,28.89
2023-03-02T14:00:04.142Z,28.75
2023-03-02T14:02:30.609Z,28.45
2023-03-02T14:04:59.434Z,29.15
2023-03-02T14:07:26.061Z,28.72
2023-03-02T14:09:52.481Z,28.93
2023-03-02T14:12:19.014Z,29.10
2023-03-02T14:14:48.553Z,29.07
2023-03-02T14:17:15.048Z,28.38
2023-03-02T14:19:41.442Z,28.98
2023-03-02T14:22:07.977Z,28.96
2023-03-02T14:24:34.595Z,28.40
2023-03-02T14:27:01.221Z,28.56
2023-03-02T14:29:27.843Z,28.58
2023-03-02T14:31:54.407Z,35.75
2023-03-02T14:34:20.941Z,38.03
2023-03-02T14:36:47.412Z,39.03
2023-03-02T14:39:13.847Z,30.29
2023-03-02T14:41:52.421Z,30.64
2023-03-02T14:44:19.764Z,28.54
2023-03-02T14:46:46.165Z,27.22
2023-03-02T14:49:12.603Z,28.50
2023-03-02T14:51:39.365Z,28.07
2023-03-02T14:54:05.912Z,26.92
2023-03-02T14:56:32.507Z,27.10
2023-03-02T14:58:59.100Z,27.92
2023-03-02T15:01:25.518Z,27.21
2023-03-02T15:03:52.044Z,27.42
2023-03-02T15:06:18.530Z,27.43
2023-03-02T15:08:45.193Z,27.29
2023-03-02T15:11:11.612Z,26.53
2023-03-02T15:13:38.060Z,27.52
2023-03-02T15:16:04.537Z,26.33
2023-03-02T15:18:30.913Z,26.75
2023-03-02T15:20:57.450Z,27.59
2023-03-02T15:23:23.857Z,28.49
2023-03-02T15:25:50.271Z,26.65
2023-03-02T15:28:16.605Z,28.03
2023-03-02T15:30:43.502Z,26.82
2023-03-02T15:33:09.912Z,27.95
2023-03-02T15:35:36.316Z,26.68
2023-03-02T15:38:02.773Z,27.52
2023-03-02T15:40:29.224Z,33.38
2023-03-02T15:42:55.679Z,34.53
2023-03-02T15:45:22.153Z,33.45
2023-03-02T15:47:48.607Z,32.37
2023-03-02T15:50:15.070Z,27.51
2023-03-02T15:52:41.430Z,28.70
2023-03-02T15:55:07.818Z,29.33
2023-03-02T15:57:34.246Z,28.42
2023-03-02T16:00:00.788Z,28.13
2023-03-02T16:02:27.182Z,27.75
2023-03-02T16:04:53.712Z,26.83
2023-03-02T16:07:20.348Z,27.37
2023-03-02T16:09:46.766Z,27.05
2023-03-02T16:12:13.254Z,28.44
2023-03-02T16:14:39.920Z,27.50
2023-03-02T16:17:06.399Z,27.39
2023-03-02T16:19:32.927Z,27.49
2023-03-02T16:21:59.846Z,28.35
2023-03-02T16:24:26.375Z,28.00
2023-03-02T16:26:52.788Z,27.17
2023-03-02T16:29:19.377Z,28.38
2023-03-02T16:31:45.921Z,28.86
2023-03-02T16:34:12.426Z,28.55
2023-03-02T16:36:38.956Z,28.10
2023-03-02T16:39:05.382Z,28.10
2023-03-02T16:41:31.939Z,28.76
2023-03-02T16:43:58.456Z,29.22
2023-03-02T16:46:25.182Z,29.57
2023-03-02T16:48:51.632Z,29.42
2023-03-02T16:51:18.038Z,29.58
2023-03-02T16:53:44.757Z,29.74
2023-03-02T16:56:11.315Z,30.02
2023-03-02T16:58:37.808Z,29.72
2023-03-02T17:01:04.870Z,29.92
2023-03-02T17:03:31.541Z,29.50
2023-03-02T17:05:58.278Z,30.09
2023-03-02T17:08:25.917Z,30.00
2023-03-02T17:10:56.337Z,30.30
2023-03-02T17:13:23.304Z,30.40
2023-03-02T17:15:49.786Z,30.29
2023-03-02T17:18:16.503Z,30.29
2023-03-02T17:20:43.008Z,30.48
2023-03-02T17:23:09.622Z,30.25
2023-03-02T17:25:36.558Z,30.13
2023-03-02T17:28:02.993Z,30.22
2023-03-02T17:30:30.481Z,31.09
2023-03-02T17:32:57.342Z,30.22
2023-03-02T17:35:24.275Z,30.62
2023-03-02T17:37:50.945Z,30.79
2023-03-02T17:40:17.647Z,30.93
2023-03-02T17:42:44.387Z,31.21
2023-03-02T17:45:11.083Z,30.85
2023-03-02T17:47:37.690Z,31.47
2023-03-02T17:50:04.196Z,31.91
2023-03-02T17:52:30.656Z,31.83
2023-03-02T17:54:57.349Z,32.21
2023-03-02T17:57:24.435Z,31.86
2023-03-02T17:59:51.116Z,31.93
2023-03-02T18:02:19.278Z,31.65
2023-03-02T18:04:45.952Z,31.01
2023-03-02T18:07:12.465Z,31.64
2023-03-02T18:09:39.251Z,32.40
2023-03-02T18:12:05.794Z,32.48
2023-03-02T18:14:32.583Z,32.16
2023-03-02T18:17:02.039Z,32.72
2023-03-02T18:19:29.045Z,32.42
2023-03-02T18:21:55.656Z,31.84
2023-03-02T18:24:22.732Z,32.46
2023-03-02T18:26:49.664Z,32.33
2023-03-02T18:29:16.459Z,32.77
2023-03-02T18:31:44.364Z,32.61
2023-03-02T18:34:14.994Z,32.37
2023-03-02T18:36:41.796Z,32.59
2023-03-02T18:39:08.686Z,31.94
2023-03-02T18:41:35.405Z,32.37
2023-03-02T18:44:02.790Z,32.46
2023-03-02T18:46:29.690Z,32.64
2023-03-02T18:48:56.686Z,32.66
2023-03-02T18:51:23.249Z,32.96
2023-03-02T18:53:51.274Z,33.03
2023-03-02T18:56:18.961Z,32.90
2023-03-02T18:58:45.540Z,33.00
2023-03-02T19:01:12.256Z,32.88
2023-03-02T19:03:39.547Z,32.75
2023-03-02T19:06:06.500Z,33.14
2023-03-02T19:08:34.208Z,33.38
2023-03-02T19:11:01.813Z,33.21
2023-03-02T19:13:28.314Z,32.96
2023-03-02T19:15:55.389Z,33.11
2023-03-02T19:18:22.519Z,33.24
2023-03-02T19:20:49.427Z,32.85
2023-03-02T19:23:16.600Z,33.00
2023-03-02T19:25:43.531Z,33.10
2023-03-02T19:28:10.344Z,33.12
2023-03-02T19:30:37.400Z,32.96
2023-03-02T19:33:04.366Z,33.07
2023-03-02T19:35:31.932Z,33.22
2023-03-02T19:38:01.305Z,32.98
2023-03-02T19:40:29.290Z,33.87
2023-03-02T19:42:56.562Z,34.14
2023-03-02T19:45:23.547Z,34.11
2023-03-02T19:47:50.658Z,34.30
2023-03-02T19:50:17.185Z,34.52
2023-03-02T19:52:44.849Z,33.90
2023-03-02T19:55:11.451Z,33.76
2023-03-02T19:57:40.042Z,33.81
2023-03-02T20:00:07.125Z,33.66
2023-03-02T20:02:36.357Z,34.10
2023-03-02T20:05:07.730Z,34.23
2023-03-02T20:07:41.627Z,34.85
2023-03-02T20:10:11.624Z,34.73
2023-03-02T20:12:38.505Z,34.61
2023-03-02T20:15:05.318Z,34.66
2023-03-02T20:17:32.891Z,34.01
2023-03-02T20:20:05.365Z,34.60
2023-03-02T20:22:32.317Z,34.26
2023-03-02T20:24:59.209Z,34.67
2023-03-02T20:27:26.585Z,34.69
2023-03-02T20:29:53.934Z,34.63
2023-03-02T20:32:21.018Z,34.56
2023-03-02T20:34:48.310Z,35.11
2023-03-02T20:37:18.558Z,35.20
2023-03-02T20:39:45.945Z,35.30
2023-03-02T20:42:12.892Z,35.27
2023-03-02T20:44:40.187Z,34.98
2023-03-02T20:47:07.091Z,35.02
2023-03-02T20:49:34.115Z,34.87
2023-03-02T20:52:02.873Z,35.14
2023-03-02T20:54:29.844Z,35.23
2023-03-02T20:56:58.080Z,34.99
2023-03-02T20:59:24.603Z,34.91
2023-03-02T21:01:51.826Z,34.89
2023-03-02T21:04:18.960Z,35.12
2023-03-02T21:06:45.873Z,35.13
2023-03-02T21:09:12.555Z,35.05
2023-03-02T21:11:39.182Z,35.23
2023-03-02T21:14:06.229Z,35.07
2023-03-02T21:16:33.825Z,34.72
2023-03-02T21:19:02.506Z,35.15
2023-03-02T21:21:40.573Z,35.10
2023-03-02T21:24:07.876Z,35.60
2023-03-02T21:26:34.365Z,35.67
2023-03-02T21:29:01.159Z,35.33
2023-03-02T21:31:28.892Z,35.07
2023-03-02T21:33:55.822Z,35.61
2023-03-02T21:36:22.813Z,35.28
2023-03-02T21:38:49.312Z,35.36
2023-03-02T21:41:15.912Z,34.77
2023-03-02T21:43:42.326Z,35.13
2023-03-02T21:46:08.802Z,35.46
2023-03-02T21:48:35.418Z,35.35
2023-03-02T21:51:02.016Z,35.49
2023-03-02T21:53:28.493Z,35.53
2023-03-02T21:55:54.963Z,35.38
2023-03-02T21:58:21.607Z,35.45
2023-03-02T22:00:48.144Z,35.56
2023-03-02T22:03:14.660Z,36.19
2023-03-02T22:05:41.090Z,36.14
2023-03-02T22:08:07.515Z,36.19
2023-03-02T22:10:34.134Z,35.96
2023-03-02T22:13:00.639Z,35.58
2023-03-02T22:15:27.403Z,36.05
2023-03-02T22:17:53.809Z,36.15
2023-03-02T22:20:20.234Z,35.50
2023-03-02T22:22:47.015Z,36.15
2023-03-02T22:25:13.596Z,36.28
2023-03-02T22:27:40.440Z,36.51
2023-03-02T22:30:06.930Z,36.47
2023-03-02T22:32:33.437Z,36.76
2023-03-02T22:34:59.982Z,36.43
2023-03-02T22:37:26.554Z,36.25
2023-03-02T22:39:52.957Z,36.25
2023-03-02T22:42:19.390Z,36.06
2023-03-02T22:44:45.833Z,36.18
2023-03-02T22:47:12.204Z,35.98
2023-03-02T22:49:38.641Z,36.29
2023-03-02T22:52:05.118Z,36.20
2023-03-02T22:54:31.552Z,36.37
2023-03-02T22:56:59.029Z,36.48
2023-03-02T22:59:25.504Z,35.93
2023-03-02T23:01:52.015Z,36.54
2023-03-02T23:04:18.487Z,36.50
2023-03-02T23:06:47.357Z,36.81
2023-03-02T23:09:18.613Z,36.33
2023-03-02T23:11:45.007Z,36.14
2023-03-02T23:14:11.821Z,36.81
2023-03-02T23:16:38.248Z,37.14
2023-03-02T23:19:04.736Z,37.12
2023-03-02T23:21:31.230Z,36.72
2023-03-02T23:23:57.616Z,37.05
2023-03-02T23:26:24.111Z,36.97
2023-03-02T23:28:50.590Z,36.79
2023-03-02T23:31:17.109Z,36.74
2023-03-02T23:33:43.569Z,37.08
2023-03-02T23:36:10.065Z,37.22
2023-03-02T23:38:38.863Z,37.28
2023-03-02T23:41:05.392Z,37.14
2023-03-02T23:43:31.837Z,37.28
2023-03-02T23:45:58.281Z,37.31
2023-03-02T23:48:24.772Z,37.16
2023-03-02T23:50:51.166Z,36.57
2023-03-02T23:53:18.937Z,36.90
2023-03-02T23:55:45.326Z,37.18
2023-03-02T23:58:11.801Z,37.46
